createdAt,value
2018-07-15T00:01:20.003Z,24.41
2018-07-15T00:03:47.911Z,24.30
2018-07-15T00:06:15.761Z,24.35
2018-07-15T00:08:43.654Z,24.27
2018-07-15T00:11:11.577Z,24.31
2018-07-15T00:13:39.438Z,24.27
2018-07-15T00:16:07.322Z,24.25
2018-07-15T00:18:35.216Z,24.33
2018-07-15T00:21:03.314Z,23.97
2018-07-15T00:23:31.171Z,24.10
2018-07-15T00:25:59.006Z,24.08
2018-07-15T00:28:26.892Z,24.14
2018-07-15T00:30:54.781Z,24.05
2018-07-15T00:33:22.656Z,24.07
2018-07-15T00:35:50.541Z,24.09
2018-07-15T00:38:18.409Z,24.00
2018-07-15T00:40:46.341Z,23.98
2018-07-15T00:43:14.191Z,23.93
2018-07-15T00:45:42.041Z,23.89
2018-07-15T00:48:09.983Z,23.89
2018-07-15T00:53:05.038Z,23.71
2018-07-15T00:55:32.937Z,23.87
2018-07-15T00:58:00.776Z,23.88
2018-07-15T01:00:34.236Z,23.80
2018-07-15T01:03:02.094Z,23.77
2018-07-15T01:05:29.953Z,23.72
2018-07-15T01:07:58.086Z,23.61
2018-07-15T01:10:25.958Z,23.59
2018-07-15T01:12:53.782Z,23.63
2018-07-15T01:15:21.641Z,23.61
2018-07-15T01:17:49.508Z,23.46
2018-07-15T01:20:17.662Z,23.63
2018-07-15T01:22:45.520Z,23.53
2018-07-15T01:25:13.356Z,23.55
2018-07-15T01:27:41.245Z,23.43
2018-07-15T01:30:09.210Z,23.33
2018-07-15T01:32:37.086Z,23.49
2018-07-15T01:35:04.987Z,23.54
2018-07-15T01:37:32.874Z,23.33
2018-07-15T01:40:01.023Z,23.40
2018-07-15T01:42:28.879Z,23.43
2018-07-15T01:44:56.787Z,23.49
2018-07-15T01:47:24.646Z,23.33
2018-07-15T01:49:52.493Z,23.51
2018-07-15T01:52:20.330Z,23.35
2018-07-15T01:54:48.170Z,23.28
2018-07-15T01:57:15.992Z,23.26
2018-07-15T01:59:43.847Z,23.42
2018-07-15T02:02:11.742Z,23.34
2018-07-15T02:04:39.602Z,23.41
2018-07-15T02:07:07.598Z,23.38
2018-07-15T02:09:35.510Z,23.35
2018-07-15T02:12:03.350Z,23.23
2018-07-15T02:14:31.240Z,23.33
2018-07-15T02:16:59.134Z,23.37
2018-07-15T02:19:26.973Z,23.13
2018-07-15T02:21:54.814Z,23.06
2018-07-15T02:24:22.667Z,23.24
2018-07-15T02:26:50.539Z,23.06
2018-07-15T02:29:18.418Z,23.10
2018-07-15T02:31:46.279Z,23.22
2018-07-15T02:34:14.132Z,23.25
2018-07-15T02:36:42.034Z,23.08
2018-07-15T02:39:10.619Z,23.06
2018-07-15T02:41:38.469Z,23.11
2018-07-15T02:44:06.725Z,23.25
2018-07-15T02:46:34.797Z,23.22
2018-07-15T02:49:02.663Z,23.30
2018-07-15T02:51:30.494Z,23.28
2018-07-15T02:53:58.411Z,22.93
2018-07-15T02:56:26.290Z,23.17
2018-07-15T02:58:54.179Z,23.21
2018-07-15T03:01:22.018Z,23.30
2018-07-15T03:03:50.002Z,23.59
2018-07-15T03:06:17.929Z,23.80
2018-07-15T03:08:45.773Z,23.92
2018-07-15T03:11:13.742Z,24.38
2018-07-15T03:13:41.569Z,25.12
2018-07-15T03:16:09.460Z,25.68
2018-07-15T03:18:37.361Z,26.46
2018-07-15T03:21:05.290Z,27.28
2018-07-15T03:23:33.166Z,26.82
2018-07-15T03:26:01.281Z,27.11
2018-07-15T03:28:29.148Z,26.86
2018-07-15T03:30:57.072Z,27.39
2018-07-15T03:33:24.968Z,28.18
2018-07-15T03:35:52.799Z,29.45
2018-07-15T03:38:20.618Z,30.35
2018-07-15T03:40:48.463Z,30.87
2018-07-15T03:43:16.352Z,29.62
2018-07-15T03:45:44.217Z,30.91
2018-07-15T03:48:12.350Z,31.59
2018-07-15T03:50:40.534Z,31.01
2018-07-15T03:53:08.395Z,31.33
2018-07-15T03:55:36.283Z,32.09
2018-07-15T03:58:04.159Z,32.82
2018-07-15T04:00:32.018Z,32.62
2018-07-15T04:02:59.790Z,33.12
2018-07-15T04:05:27.679Z,34.09
2018-07-15T04:07:55.553Z,34.39
2018-07-15T04:10:23.439Z,34.13
2018-07-15T04:12:51.293Z,34.97
2018-07-15T04:15:19.187Z,34.99
2018-07-15T04:17:51.539Z,35.10
2018-07-15T04:20:19.423Z,34.16
2018-07-15T04:22:47.269Z,35.35
2018-07-15T04:25:15.129Z,35.03
2018-07-15T04:27:42.950Z,35.10
2018-07-15T04:30:10.794Z,36.69
2018-07-15T04:32:38.675Z,38.09
2018-07-15T04:35:06.594Z,38.54
2018-07-15T04:37:34.473Z,39.84
2018-07-15T04:40:02.347Z,37.92
2018-07-15T04:42:30.260Z,36.39
2018-07-15T04:44:58.162Z,36.43
2018-07-15T04:47:25.990Z,36.39
2018-07-15T04:49:53.861Z,36.85
2018-07-15T04:52:21.709Z,37.82
2018-07-15T04:54:49.615Z,37.43
2018-07-15T04:57:17.447Z,37.08
2018-07-15T04:59:45.257Z,38.64
2018-07-15T05:02:13.070Z,39.88
2018-07-15T05:04:40.921Z,40.78
2018-07-15T05:07:08.782Z,40.52
2018-07-15T05:09:36.670Z,39.82
2018-07-15T05:12:04.517Z,38.99
2018-07-15T05:14:32.378Z,36.74
2018-07-15T05:17:00.609Z,37.37
2018-07-15T05:19:28.615Z,36.64
2018-07-15T05:21:56.493Z,36.65
2018-07-15T05:24:24.329Z,36.36
2018-07-15T05:26:52.181Z,36.63
2018-07-15T05:29:20.025Z,37.32
2018-07-15T05:31:47.829Z,35.90
2018-07-15T05:34:15.705Z,35.60
2018-07-15T05:36:43.629Z,35.28
2018-07-15T05:39:11.414Z,34.66
2018-07-15T05:41:39.305Z,36.06
2018-07-15T05:44:07.182Z,37.09
2018-07-15T05:46:35.076Z,36.20
2018-07-15T05:49:02.946Z,34.84
2018-07-15T05:51:30.802Z,34.65
2018-07-15T05:53:58.647Z,35.64
2018-07-15T05:56:26.502Z,35.28
2018-07-15T05:58:54.803Z,32.55
2018-07-15T06:01:22.887Z,34.00
2018-07-15T06:03:50.657Z,34.20
2018-07-15T06:06:18.522Z,33.06
2018-07-15T06:08:46.402Z,35.62
2018-07-15T06:11:14.363Z,36.45
2018-07-15T06:13:42.286Z,36.64
2018-07-15T06:16:10.224Z,36.13
2018-07-15T06:18:38.120Z,34.69
2018-07-15T06:21:05.994Z,33.39
2018-07-15T06:23:33.861Z,33.70
2018-07-15T06:28:40.470Z,33.71
2018-07-15T06:31:08.309Z,34.59
2018-07-15T06:33:36.107Z,34.55
2018-07-15T06:36:03.993Z,34.42
2018-07-15T06:38:31.766Z,34.61
2018-07-15T06:40:59.633Z,34.03
2018-07-15T06:43:27.510Z,32.59
2018-07-15T06:45:55.330Z,33.58
2018-07-15T06:48:23.154Z,33.56
2018-07-15T06:50:50.985Z,30.87
2018-07-15T06:53:18.805Z,33.14
2018-07-15T06:55:46.698Z,34.00
2018-07-15T06:58:14.513Z,33.55
2018-07-15T07:00:42.364Z,33.16
2018-07-15T07:03:10.165Z,33.01
2018-07-15T07:05:38.036Z,32.96
2018-07-15T07:08:05.913Z,32.64
2018-07-15T07:10:33.769Z,33.24
2018-07-15T07:13:01.638Z,33.61
2018-07-15T07:15:29.413Z,34.41
2018-07-15T07:17:57.267Z,34.17
2018-07-15T07:20:25.165Z,33.73
2018-07-15T07:22:53.634Z,32.76
2018-07-15T07:25:21.486Z,33.59
2018-07-15T07:27:49.377Z,33.66
2018-07-15T07:30:17.245Z,34.68
2018-07-15T07:32:45.244Z,33.58
2018-07-15T07:35:13.104Z,33.13
2018-07-15T07:37:40.955Z,33.24
2018-07-15T07:40:09.147Z,34.20
2018-07-15T07:42:37.004Z,34.09
2018-07-15T07:45:05.007Z,34.06
2018-07-15T07:47:32.843Z,34.64
2018-07-15T07:50:00.932Z,34.39
2018-07-15T07:52:28.766Z,33.71
2018-07-15T07:54:56.615Z,33.80
2018-07-15T07:57:24.818Z,33.16
2018-07-15T07:59:52.665Z,32.76
2018-07-15T08:02:20.574Z,32.67
2018-07-15T08:04:48.442Z,33.22
2018-07-15T08:07:16.273Z,31.72
2018-07-15T08:09:44.048Z,31.67
2018-07-15T08:12:11.918Z,32.01
2018-07-15T08:14:39.745Z,32.60
2018-07-15T08:17:07.575Z,32.35
2018-07-15T08:19:35.434Z,32.11
2018-07-15T08:22:03.327Z,32.21
2018-07-15T08:24:31.197Z,33.03
2018-07-15T08:26:59.035Z,33.52
2018-07-15T08:29:26.886Z,32.74
2018-07-15T08:31:54.662Z,32.77
2018-07-15T08:34:22.530Z,32.53
2018-07-15T08:36:50.304Z,32.12
2018-07-15T08:39:18.825Z,32.30
2018-07-15T08:41:46.649Z,32.59
2018-07-15T08:44:14.465Z,32.06
2018-07-15T08:46:42.420Z,31.75
2018-07-15T08:49:10.270Z,32.48
2018-07-15T08:51:38.090Z,32.06
2018-07-15T08:54:05.953Z,31.51
2018-07-15T08:56:34.138Z,32.42
2018-07-15T08:59:02.027Z,32.11
2018-07-15T09:01:29.883Z,31.45
2018-07-15T09:03:57.748Z,31.87
2018-07-15T09:06:25.638Z,32.41
2018-07-15T09:08:53.476Z,32.45
2018-07-15T09:11:21.356Z,32.47
2018-07-15T09:13:49.204Z,31.46
2018-07-15T09:16:17.194Z,32.03
2018-07-15T09:18:44.998Z,31.85
2018-07-15T09:21:12.870Z,32.12
2018-07-15T09:23:40.725Z,32.81
2018-07-15T09:26:08.545Z,32.26
2018-07-15T09:28:36.434Z,31.92
2018-07-15T09:31:04.297Z,32.41
2018-07-15T09:33:32.126Z,32.55
2018-07-15T09:36:00.047Z,32.41
2018-07-15T09:38:27.923Z,32.05
2018-07-15T09:40:55.842Z,32.85
2018-07-15T09:43:23.724Z,33.50
2018-07-15T09:45:51.494Z,33.33
2018-07-15T09:48:19.370Z,33.08
2018-07-15T09:50:47.255Z,33.11
2018-07-15T09:53:15.129Z,32.42
2018-07-15T09:55:43.039Z,32.65
2018-07-15T09:58:10.968Z,32.47
2018-07-15T10:00:44.523Z,32.61
2018-07-15T10:03:12.375Z,33.16
2018-07-15T10:05:40.201Z,33.32
2018-07-15T10:08:08.129Z,33.23
2018-07-15T10:10:35.987Z,32.56
2018-07-15T10:13:03.777Z,32.35
2018-07-15T10:15:31.622Z,32.38
2018-07-15T10:17:59.488Z,32.31
2018-07-15T10:20:27.323Z,32.75
2018-07-15T10:22:55.184Z,32.64
2018-07-15T10:25:23.026Z,33.30
2018-07-15T10:27:50.806Z,33.06
2018-07-15T10:30:18.573Z,33.22
2018-07-15T10:32:46.692Z,32.57
2018-07-15T10:35:14.485Z,32.94
2018-07-15T10:37:42.347Z,32.90
2018-07-15T10:40:10.202Z,33.37
2018-07-15T10:42:38.087Z,34.03
2018-07-15T10:45:06.163Z,32.92
2018-07-15T10:47:34.140Z,32.56
2018-07-15T10:50:02.018Z,33.26
2018-07-15T10:52:29.823Z,32.72
2018-07-15T10:54:57.679Z,33.32
2018-07-15T10:57:25.511Z,33.40
2018-07-15T10:59:53.394Z,33.92
2018-07-15T11:02:21.271Z,33.05
2018-07-15T11:04:49.139Z,33.50
2018-07-15T11:07:17.018Z,33.22
2018-07-15T11:09:45.149Z,32.77
2018-07-15T11:12:13.069Z,34.11
2018-07-15T11:14:40.878Z,33.88
2018-07-15T11:17:08.665Z,33.92
2018-07-15T11:19:36.642Z,33.32
2018-07-15T11:22:04.574Z,34.33
2018-07-15T11:24:32.397Z,33.93
2018-07-15T11:27:00.369Z,33.16
2018-07-15T11:29:28.468Z,33.84
2018-07-15T11:31:56.297Z,33.33
2018-07-15T11:34:24.138Z,33.96
2018-07-15T11:36:52.064Z,34.23
2018-07-15T11:39:19.906Z,33.62
2018-07-15T11:41:47.698Z,33.41
2018-07-15T11:44:15.521Z,34.08
2018-07-15T11:46:43.384Z,35.16
2018-07-15T11:49:11.244Z,33.98
2018-07-15T11:51:39.098Z,34.57
2018-07-15T11:54:06.971Z,33.93
2018-07-15T11:56:34.777Z,34.35
2018-07-15T11:59:02.667Z,34.37
2018-07-15T12:01:30.544Z,34.86
2018-07-15T12:03:58.546Z,34.36
2018-07-15T12:06:26.395Z,35.26
2018-07-15T12:08:54.204Z,33.92
2018-07-15T12:11:22.034Z,34.42
2018-07-15T12:13:49.875Z,33.87
2018-07-15T12:16:17.741Z,34.27
2018-07-15T12:18:45.694Z,33.90
2018-07-15T12:21:13.554Z,33.20
2018-07-15T12:23:41.666Z,34.48
2018-07-15T12:26:09.472Z,34.03
2018-07-15T12:28:37.310Z,35.11
2018-07-15T12:31:05.112Z,33.73
2018-07-15T12:33:33.222Z,34.50
2018-07-15T12:36:01.154Z,33.71
2018-07-15T12:38:29.043Z,34.19
2018-07-15T12:40:56.853Z,33.57
2018-07-15T12:43:24.951Z,34.01
2018-07-15T12:45:52.838Z,34.09
2018-07-15T12:48:20.791Z,33.88
2018-07-15T12:50:48.857Z,34.74
2018-07-15T12:53:16.925Z,34.16
2018-07-15T12:55:44.932Z,34.28
2018-07-15T12:58:12.901Z,34.06
2018-07-15T13:00:40.910Z,34.68
2018-07-15T13:03:08.888Z,34.67
2018-07-15T13:05:36.857Z,35.44
2018-07-15T13:08:04.716Z,36.07
2018-07-15T13:10:32.651Z,35.62
2018-07-15T13:13:00.608Z,34.96
2018-07-15T13:15:28.615Z,34.74
2018-07-15T13:17:56.575Z,34.67
2018-07-15T13:20:24.390Z,33.98
2018-07-15T13:22:52.412Z,33.94
2018-07-15T13:25:20.320Z,34.07
2018-07-15T13:27:48.374Z,34.24
2018-07-15T13:30:16.393Z,33.85
2018-07-15T13:32:44.326Z,34.95
2018-07-15T13:35:12.373Z,35.39
2018-07-15T13:37:40.333Z,34.06
2018-07-15T13:40:08.320Z,35.00
2018-07-15T13:42:36.392Z,34.78
2018-07-15T13:45:04.352Z,33.20
2018-07-15T13:47:32.245Z,32.83
2018-07-15T13:50:00.125Z,33.69
2018-07-15T13:52:28.060Z,33.92
2018-07-15T13:54:55.995Z,33.70
2018-07-15T13:57:23.886Z,32.95
2018-07-15T13:59:51.777Z,32.61
2018-07-15T14:02:19.689Z,33.14
2018-07-15T14:04:47.563Z,33.40
2018-07-15T14:07:15.394Z,33.39
2018-07-15T14:09:43.157Z,32.95
2018-07-15T14:12:10.991Z,34.02
2018-07-15T14:14:38.853Z,34.28
2018-07-15T14:17:06.809Z,32.48
2018-07-15T14:19:35.474Z,33.50
2018-07-15T14:22:03.574Z,33.44
2018-07-15T14:24:31.516Z,33.17
2018-07-15T14:26:59.371Z,33.67
2018-07-15T14:29:27.214Z,33.28
2018-07-15T14:31:54.971Z,33.50
2018-07-15T14:34:22.854Z,33.60
2018-07-15T14:36:50.720Z,33.77
2018-07-15T14:39:18.645Z,32.88
2018-07-15T14:41:46.691Z,34.02
2018-07-15T14:44:14.637Z,33.78
2018-07-15T14:46:42.579Z,33.91
2018-07-15T14:49:10.648Z,33.51
2018-07-15T14:51:38.546Z,33.72
2018-07-15T14:54:06.456Z,33.80
2018-07-15T14:56:34.296Z,33.47
2018-07-15T14:59:02.226Z,33.43
2018-07-15T15:01:30.075Z,33.89
2018-07-15T15:03:57.963Z,33.55
2018-07-15T15:06:26.597Z,33.97
2018-07-15T15:08:54.495Z,33.26
2018-07-15T15:11:22.481Z,33.11
2018-07-15T15:13:50.641Z,33.16
2018-07-15T15:16:18.943Z,33.34
2018-07-15T15:18:48.119Z,33.69
2018-07-15T15:21:16.440Z,33.28
2018-07-15T15:23:44.409Z,33.43
2018-07-15T15:26:12.297Z,32.92
2018-07-15T15:28:40.378Z,32.68
2018-07-15T15:31:08.640Z,32.81
2018-07-15T15:33:36.898Z,32.21
2018-07-15T15:36:04.747Z,32.31
2018-07-15T15:38:32.974Z,32.75
2018-07-15T15:41:01.091Z,33.40
2018-07-15T15:43:29.145Z,33.44
2018-07-15T15:45:57.621Z,32.96
2018-07-15T15:48:25.585Z,32.69
2018-07-15T15:50:53.771Z,32.84
2018-07-15T15:53:21.614Z,32.78
2018-07-15T15:55:49.546Z,32.55
2018-07-15T15:58:17.653Z,32.39
2018-07-15T16:00:45.583Z,32.59
2018-07-15T16:03:13.650Z,32.22
2018-07-15T16:05:41.545Z,32.03
2018-07-15T16:08:09.377Z,31.77
2018-07-15T16:10:37.398Z,31.95
2018-07-15T16:13:06.707Z,31.81
2018-07-15T16:15:34.564Z,32.37
2018-07-15T16:18:04.046Z,32.07
2018-07-15T16:20:32.013Z,31.92
2018-07-15T16:23:00.414Z,31.94
2018-07-15T16:25:28.842Z,32.25
2018-07-15T16:27:56.965Z,31.95
2018-07-15T16:30:25.217Z,31.61
2018-07-15T16:32:53.174Z,31.88
2018-07-15T16:35:21.059Z,31.70
2018-07-15T16:37:48.933Z,31.15
2018-07-15T16:40:16.757Z,31.09
2018-07-15T16:42:46.691Z,31.10
2018-07-15T16:45:15.794Z,30.76
2018-07-15T16:47:44.948Z,30.92
2018-07-15T16:50:16.088Z,30.53
2018-07-15T16:52:44.235Z,30.34
2018-07-15T16:55:12.187Z,30.55
2018-07-15T16:57:40.307Z,30.88
2018-07-15T17:00:08.312Z,30.47
2018-07-15T17:02:36.527Z,30.19
2018-07-15T17:05:04.448Z,30.30
2018-07-15T17:07:32.633Z,30.41
2018-07-15T17:10:00.509Z,30.10
2018-07-15T17:12:28.404Z,30.18
2018-07-15T17:14:56.214Z,30.14
2018-07-15T17:17:24.135Z,30.25
2018-07-15T17:19:51.994Z,30.04
2018-07-15T17:22:19.777Z,29.99
2018-07-15T17:24:47.622Z,29.70
2018-07-15T17:27:15.407Z,29.66
2018-07-15T17:29:43.233Z,29.45
2018-07-15T17:32:11.124Z,29.06
2018-07-15T17:34:39.003Z,29.33
2018-07-15T17:37:06.818Z,29.34
2018-07-15T17:39:34.614Z,29.25
2018-07-15T17:42:02.426Z,29.03
2018-07-15T17:44:30.269Z,28.72
2018-07-15T17:46:58.243Z,28.74
2018-07-15T17:49:26.133Z,28.90
2018-07-15T17:51:54.045Z,28.76
2018-07-15T17:54:21.900Z,28.54
2018-07-15T17:56:49.798Z,28.56
2018-07-15T17:59:17.712Z,28.55
2018-07-15T18:01:45.489Z,28.61
2018-07-15T18:04:13.372Z,28.70
2018-07-15T18:06:41.219Z,28.50
2018-07-15T18:09:09.144Z,28.29
2018-07-15T18:11:37.162Z,28.24
2018-07-15T18:14:05.265Z,28.26
2018-07-15T18:16:33.199Z,28.10
2018-07-15T18:19:02.055Z,28.30
2018-07-15T18:21:29.984Z,28.19
2018-07-15T18:23:57.766Z,28.27
2018-07-15T18:26:26.045Z,28.31
2018-07-15T18:28:53.950Z,28.24
2018-07-15T18:31:21.761Z,28.25
2018-07-15T18:33:49.708Z,28.09
2018-07-15T18:36:17.647Z,28.15
2018-07-15T18:38:45.616Z,28.04
2018-07-15T18:41:13.468Z,28.07
2018-07-15T18:43:41.365Z,28.04
2018-07-15T18:46:09.320Z,28.12
2018-07-15T18:48:37.121Z,28.06
2018-07-15T18:51:04.978Z,27.93
2018-07-15T18:53:32.814Z,28.07
2018-07-15T18:56:00.595Z,28.10
2018-07-15T18:58:28.411Z,28.12
2018-07-15T19:00:56.185Z,28.03
2018-07-15T19:03:23.952Z,27.99
2018-07-15T19:05:51.742Z,28.06
2018-07-15T19:08:19.582Z,27.79
2018-07-15T19:10:47.382Z,27.97
2018-07-15T19:13:15.277Z,27.92
2018-07-15T19:15:43.133Z,27.91
2018-07-15T19:18:10.980Z,27.82
2018-07-15T19:20:38.819Z,27.82
2018-07-15T19:23:06.667Z,27.71
2018-07-15T19:25:34.584Z,27.65
2018-07-15T19:28:02.397Z,27.58
2018-07-15T19:30:30.270Z,27.62
2018-07-15T19:32:58.204Z,27.65
2018-07-15T19:35:26.343Z,27.64
2018-07-15T19:37:54.277Z,27.64
2018-07-15T19:40:22.212Z,27.61
2018-07-15T19:42:50.006Z,27.52
2018-07-15T19:45:17.851Z,27.39
2018-07-15T19:47:45.632Z,27.22
2018-07-15T19:50:13.453Z,27.41
2018-07-15T19:52:41.266Z,27.22
2018-07-15T19:55:09.038Z,27.34
2018-07-15T19:57:36.832Z,27.23
2018-07-15T20:00:04.683Z,27.28
2018-07-15T20:02:32.506Z,27.09
2018-07-15T20:05:00.391Z,27.19
2018-07-15T20:07:28.173Z,26.93
2018-07-15T20:09:55.987Z,26.69
2018-07-15T20:12:23.806Z,26.83
2018-07-15T20:14:51.566Z,26.56
2018-07-15T20:17:19.666Z,26.72
2018-07-15T20:19:47.589Z,26.45
2018-07-15T20:22:15.347Z,26.25
2018-07-15T20:24:43.475Z,26.57
2018-07-15T20:27:11.598Z,26.40
2018-07-15T20:29:39.422Z,26.16
2018-07-15T20:32:07.201Z,26.16
2018-07-15T20:34:35.004Z,25.98
2018-07-15T20:37:02.823Z,26.12
2018-07-15T20:39:30.603Z,25.89
2018-07-15T20:41:58.414Z,26.02
2018-07-15T20:44:26.218Z,25.79
2018-07-15T20:46:54.013Z,25.80
2018-07-15T20:49:21.812Z,25.99
2018-07-15T20:51:49.648Z,25.85
2018-07-15T20:54:17.450Z,25.81
2018-07-15T20:56:45.250Z,25.87
2018-07-15T20:59:13.050Z,25.90
2018-07-15T21:01:40.840Z,25.92
2018-07-15T21:04:08.606Z,25.54
2018-07-15T21:06:36.385Z,25.63
2018-07-15T21:09:05.638Z,25.62
2018-07-15T21:11:33.477Z,25.71
2018-07-15T21:14:01.457Z,25.44
2018-07-15T21:16:29.276Z,25.53
2018-07-15T21:18:57.401Z,25.64
2018-07-15T21:21:25.178Z,25.48
2018-07-15T21:23:53.105Z,25.48
2018-07-15T21:26:20.970Z,25.46
2018-07-15T21:28:48.758Z,25.41
2018-07-15T21:31:16.965Z,25.32
2018-07-15T21:33:44.773Z,25.37
2018-07-15T21:36:12.529Z,25.38
2018-07-15T21:38:40.307Z,25.31
2018-07-15T21:41:08.067Z,25.41
2018-07-15T21:43:35.830Z,24.98
2018-07-15T21:46:03.641Z,25.19
2018-07-15T21:48:31.435Z,25.28
2018-07-15T21:50:59.230Z,25.03
2018-07-15T21:53:27.023Z,24.98
2018-07-15T21:55:55.091Z,24.98
2018-07-15T21:58:22.911Z,25.24
2018-07-15T22:00:50.875Z,25.24
2018-07-15T22:03:18.669Z,24.79
2018-07-15T22:05:46.451Z,25.10
2018-07-15T22:08:25.385Z,25.03
2018-07-15T22:10:53.220Z,24.78
2018-07-15T22:13:21.060Z,24.83
2018-07-15T22:15:48.898Z,24.97
2018-07-15T22:18:16.682Z,24.83
2018-07-15T22:20:44.473Z,24.81
2018-07-15T22:23:12.249Z,24.66
2018-07-15T22:25:40.085Z,24.77
2018-07-15T22:28:07.877Z,24.59
2018-07-15T22:30:35.657Z,24.47
2018-07-15T22:33:03.442Z,24.51
2018-07-15T22:35:31.208Z,24.44
2018-07-15T22:37:58.977Z,24.58
2018-07-15T22:40:26.897Z,24.48
2018-07-15T22:42:54.662Z,24.78
2018-07-15T22:45:22.434Z,24.34
2018-07-15T22:47:50.548Z,24.44
2018-07-15T22:50:18.326Z,24.51
2018-07-15T22:52:46.109Z,24.51
2018-07-15T22:55:13.946Z,24.47
2018-07-15T22:57:41.819Z,24.41
2018-07-15T23:00:09.770Z,24.60
2018-07-15T23:02:37.534Z,24.54
2018-07-15T23:05:59.046Z,24.22
2018-07-15T23:08:28.032Z,24.22
2018-07-15T23:10:55.884Z,24.27
2018-07-15T23:13:23.716Z,24.34
2018-07-15T23:15:51.772Z,24.32
2018-07-15T23:18:19.678Z,24.21
2018-07-15T23:20:48.183Z,24.15
2018-07-15T23:23:16.245Z,24.29
2018-07-15T23:25:44.160Z,24.42
2018-07-15T23:28:13.042Z,24.52
2018-07-15T23:30:41.382Z,24.36
2018-07-15T23:33:09.553Z,24.54
2018-07-15T23:35:37.401Z,24.46
2018-07-15T23:38:05.331Z,24.22
2018-07-15T23:40:33.295Z,24.43
2018-07-15T23:43:01.434Z,24.43
2018-07-15T23:45:30.134Z,24.35
2018-07-15T23:47:57.984Z,24.34
2018-07-15T23:50:25.970Z,24.34
2018-07-15T23:52:54.034Z,24.25
2018-07-15T23:55:22.226Z,24.37
2018-07-15T23:57:49.977Z,24.27
